Kipany — WDD7913 — position and weather

sailwx.info

Track history (hours):
 
Tides and Currents Weather Stations Pressure Air Temp Water Temp Dewpoint Dewpoint Depression Visibility Wind Speed Wind Dir Waves Ship Positions

Kipany

More information available from US FCC via Universal Licensing System and Coast Guard Vessel Documentation Center.

Last reported at 2014-Aug-12 10:30 UTC. Time now 2014-Aug-20 10:46 UTC.
Position N 41°33' W 070°36'.
Warning: this ship's position is 8 days out of date.

Length 35 m; draft 2 m.

Type: Pleasure craft. MMSI: 367192870.

Date/timePositionNaut miles runAvg speedWind from/ knotsBaromVisibWave heightAir tempDewpointWater temp
2014-Aug-12 10:30N 41°33' W 070°36'0 0.0
2014-Aug-12 08:33N 41°33' W 070°36'0 0.0
2014-Aug-12 04:09N 41°33' W 070°36'0 0.0
2014-Aug-12 03:33N 41°33' W 070°36'0 0.0
2014-Aug-12 02:33N 41°33' W 070°36'0 0.0
2014-Aug-12 01:30N 41°33' W 070°36'0 0.0
2014-Aug-12 00:33N 41°33' W 070°36'0 0.0
2014-Aug-11 23:33N 41°33' W 070°36'0 0.0
2014-Aug-11 22:30N 41°33' W 070°36'0 0.0
2014-Aug-11 21:09N 41°33' W 070°36'0 0.0
2014-Aug-11 20:33N 41°33' W 070°36'0 0.0
2014-Aug-11 19:33N 41°33' W 070°36'0 0.0
2014-Aug-11 17:27N 41°33' W 070°36'0 0.0
2014-Aug-11 16:33N 41°33' W 070°36'5 4.7
2014-Aug-11 15:33N 41°29' W 070°32'6 0.9
2014-Aug-11 08:33N 41°23' W 070°31'0 0.0
2014-Aug-11 06:09N 41°23' W 070°31'0 0.0
2014-Aug-11 05:33N 41°23' W 070°31'0 0.0
2014-Aug-11 04:30N 41°23' W 070°31'0 0.0
2014-Aug-11 00:21N 41°23' W 070°31'0 0.0
2014-Aug-10 10:09N 41°23' W 070°31'0 0.0
2014-Aug-10 09:21N 41°23' W 070°31'37 0.7
2014-Aug-08 06:04N 41°29' W 071°19'0 0.0
2014-Aug-08 05:31N 41°29' W 071°19'0 0.0
2014-Aug-07 09:07N 41°29' W 071°19'0 0.0
2014-Aug-07 08:10N 41°29' W 071°19'0 0.0
2014-Aug-06 07:31N 41°29' W 071°19'0 0.0
2014-Aug-06 06:31N 41°29' W 071°19'0 0.0
2014-Aug-06 00:07N 41°29' W 071°19'0 0.0
2014-Aug-05 16:19N 41°29' W 071°19'0 0.0
2014-Aug-05 15:22N 41°29' W 071°19'0 0.0
2014-Aug-05 14:31N 41°29' W 071°19'0 0.0
2014-Aug-05 13:31N 41°29' W 071°19'0 0.0
2014-Aug-05 12:25N 41°29' W 071°19'0 0.0
2014-Aug-05 11:10N 41°29' W 071°19'10 0.5
2014-Aug-04 13:33N 41°21' W 071°28'1111.3
2014-Aug-04 12:33N 41°11' W 071°35'0 0.0
2014-Aug-04 11:30N 41°11' W 071°35'0 0.0
2014-Aug-04 10:33N 41°11' W 071°35'0 0.0
2014-Aug-04 09:33N 41°11' W 071°35'0 0.0
2014-Aug-04 08:33N 41°11' W 071°35'0 0.0
2014-Aug-04 07:33N 41°11' W 071°35'0 0.0
2014-Aug-04 06:33N 41°11' W 071°35'0 0.0
2014-Aug-04 05:33N 41°11' W 071°35'0 0.0
2014-Aug-04 04:33N 41°11' W 071°35'0 0.0
2014-Aug-04 03:33N 41°11' W 071°35'0 0.0
2014-Aug-04 02:33N 41°11' W 071°35'0 0.0
2014-Aug-04 01:33N 41°11' W 071°35'0 0.0
2014-Aug-04 00:27N 41°11' W 071°35'0 0.0
2014-Aug-03 23:33N 41°11' W 071°35'0 0.0
2014-Aug-03 22:33N 41°11' W 071°35'0 0.0
2014-Aug-03 21:30N 41°11' W 071°35'0 0.0
2014-Aug-03 20:33N 41°11' W 071°35'0 0.0
2014-Aug-03 19:33N 41°11' W 071°35'0 0.0
2014-Aug-03 18:33N 41°11' W 071°35'0 0.0
2014-Aug-03 17:33N 41°11' W 071°35'0 0.0
2014-Aug-03 11:33N 41°11' W 071°35'0 0.0
2014-Aug-03 10:33N 41°11' W 071°35'0 0.0
2014-Aug-03 09:33N 41°11' W 071°35'0 0.0
2014-Aug-03 08:27N 41°11' W 071°35'0 0.0
2014-Aug-03 07:33N 41°11' W 071°35'0 0.0
2014-Aug-03 06:33N 41°11' W 071°35'0 0.0
2014-Aug-03 05:33N 41°11' W 071°35'0 0.0
2014-Aug-03 04:33N 41°11' W 071°35'0 0.0
2014-Aug-03 03:33N 41°11' W 071°35'0 0.0
2014-Aug-03 02:33N 41°11' W 071°35'0 0.0
2014-Aug-03 01:33N 41°11' W 071°35'0 0.0
2014-Aug-03 00:33N 41°11' W 071°35'0 0.0
2014-Aug-02 23:33N 41°11' W 071°35'0 0.0
2014-Aug-02 22:33N 41°11' W 071°35'0 0.0
2014-Aug-02 21:33N 41°11' W 071°35'0 0.0
2014-Aug-02 20:33N 41°11' W 071°35'0 0.0
2014-Aug-02 19:33N 41°11' W 071°35'0 0.0
2014-Aug-02 18:30N 41°11' W 071°35'0 0.0
2014-Aug-02 17:33N 41°11' W 071°35'0 0.0
2014-Aug-02 16:33N 41°11' W 071°35'0 0.0
2014-Aug-02 15:33N 41°11' W 071°35'0 0.0
2014-Aug-02 14:33N 41°11' W 071°35'0 0.0
2014-Aug-02 13:33N 41°11' W 071°35'0 0.0
2014-Aug-02 12:33N 41°11' W 071°35'0 0.0
2014-Aug-02 11:33N 41°11' W 071°35'0 0.0
2014-Aug-02 10:33N 41°11' W 071°35'  
Track history (hours):
 
Tides and Currents Weather Stations Pressure Air Temp Water Temp Dewpoint Dewpoint Depression Visibility Wind Speed Wind Dir Waves Ship Positions

Kipany

More information available from US FCC via Universal Licensing System and Coast Guard Vessel Documentation Center.

Last reported at 2014-Aug-12 10:30 UTC. Time now 2014-Aug-20 10:46 UTC.
Position N 41°33' W 070°36'.
Warning: this ship's position is 8 days out of date.

Length 35 m; draft 2 m.

Type: Pleasure craft. MMSI: 367192870.

Date/timePositionNaut miles runAvg speedWind from/ knotsBaromVisibWave heightAir tempDewpointWater temp
2014-Aug-12 10:30N 41°33' W 070°36'0 0.0
2014-Aug-12 08:33N 41°33' W 070°36'0 0.0
2014-Aug-12 04:09N 41°33' W 070°36'0 0.0
2014-Aug-12 03:33N 41°33' W 070°36'0 0.0
2014-Aug-12 02:33N 41°33' W 070°36'0 0.0
2014-Aug-12 01:30N 41°33' W 070°36'0 0.0
2014-Aug-12 00:33N 41°33' W 070°36'0 0.0
2014-Aug-11 23:33N 41°33' W 070°36'0 0.0
2014-Aug-11 22:30N 41°33' W 070°36'0 0.0
2014-Aug-11 21:09N 41°33' W 070°36'0 0.0
2014-Aug-11 20:33N 41°33' W 070°36'0 0.0
2014-Aug-11 19:33N 41°33' W 070°36'0 0.0
2014-Aug-11 17:27N 41°33' W 070°36'0 0.0
2014-Aug-11 16:33N 41°33' W 070°36'5 4.7
2014-Aug-11 15:33N 41°29' W 070°32'6 0.9
2014-Aug-11 08:33N 41°23' W 070°31'0 0.0
2014-Aug-11 06:09N 41°23' W 070°31'0 0.0
2014-Aug-11 05:33N 41°23' W 070°31'0 0.0
2014-Aug-11 04:30N 41°23' W 070°31'0 0.0
2014-Aug-11 00:21N 41°23' W 070°31'0 0.0
2014-Aug-10 10:09N 41°23' W 070°31'0 0.0
2014-Aug-10 09:21N 41°23' W 070°31'37 0.7
2014-Aug-08 06:04N 41°29' W 071°19'0 0.0
2014-Aug-08 05:31N 41°29' W 071°19'0 0.0
2014-Aug-07 09:07N 41°29' W 071°19'0 0.0
2014-Aug-07 08:10N 41°29' W 071°19'0 0.0
2014-Aug-06 07:31N 41°29' W 071°19'0 0.0
2014-Aug-06 06:31N 41°29' W 071°19'0 0.0
2014-Aug-06 00:07N 41°29' W 071°19'0 0.0
2014-Aug-05 16:19N 41°29' W 071°19'0 0.0
2014-Aug-05 15:22N 41°29' W 071°19'0 0.0
2014-Aug-05 14:31N 41°29' W 071°19'0 0.0
2014-Aug-05 13:31N 41°29' W 071°19'0 0.0
2014-Aug-05 12:25N 41°29' W 071°19'0 0.0
2014-Aug-05 11:10N 41°29' W 071°19'10 0.5
2014-Aug-04 13:33N 41°21' W 071°28'1111.3
2014-Aug-04 12:33N 41°11' W 071°35'0 0.0
2014-Aug-04 11:30N 41°11' W 071°35'0 0.0
2014-Aug-04 10:33N 41°11' W 071°35'0 0.0
2014-Aug-04 09:33N 41°11' W 071°35'0 0.0
2014-Aug-04 08:33N 41°11' W 071°35'0 0.0
2014-Aug-04 07:33N 41°11' W 071°35'0 0.0
2014-Aug-04 06:33N 41°11' W 071°35'0 0.0
2014-Aug-04 05:33N 41°11' W 071°35'0 0.0
2014-Aug-04 04:33N 41°11' W 071°35'0 0.0
2014-Aug-04 03:33N 41°11' W 071°35'0 0.0
2014-Aug-04 02:33N 41°11' W 071°35'0 0.0
2014-Aug-04 01:33N 41°11' W 071°35'0 0.0
2014-Aug-04 00:27N 41°11' W 071°35'0 0.0
2014-Aug-03 23:33N 41°11' W 071°35'0 0.0
2014-Aug-03 22:33N 41°11' W 071°35'0 0.0
2014-Aug-03 21:30N 41°11' W 071°35'0 0.0
2014-Aug-03 20:33N 41°11' W 071°35'0 0.0
2014-Aug-03 19:33N 41°11' W 071°35'0 0.0
2014-Aug-03 18:33N 41°11' W 071°35'0 0.0
2014-Aug-03 17:33N 41°11' W 071°35'0 0.0
2014-Aug-03 11:33N 41°11' W 071°35'0 0.0
2014-Aug-03 10:33N 41°11' W 071°35'0 0.0
2014-Aug-03 09:33N 41°11' W 071°35'0 0.0
2014-Aug-03 08:27N 41°11' W 071°35'0 0.0
2014-Aug-03 07:33N 41°11' W 071°35'0 0.0
2014-Aug-03 06:33N 41°11' W 071°35'0 0.0
2014-Aug-03 05:33N 41°11' W 071°35'0 0.0
2014-Aug-03 04:33N 41°11' W 071°35'0 0.0
2014-Aug-03 03:33N 41°11' W 071°35'0 0.0
2014-Aug-03 02:33N 41°11' W 071°35'0 0.0
2014-Aug-03 01:33N 41°11' W 071°35'0 0.0
2014-Aug-03 00:33N 41°11' W 071°35'0 0.0
2014-Aug-02 23:33N 41°11' W 071°35'0 0.0
2014-Aug-02 22:33N 41°11' W 071°35'0 0.0
2014-Aug-02 21:33N 41°11' W 071°35'0 0.0
2014-Aug-02 20:33N 41°11' W 071°35'0 0.0
2014-Aug-02 19:33N 41°11' W 071°35'0 0.0
2014-Aug-02 18:30N 41°11' W 071°35'0 0.0
2014-Aug-02 17:33N 41°11' W 071°35'0 0.0
2014-Aug-02 16:33N 41°11' W 071°35'0 0.0
2014-Aug-02 15:33N 41°11' W 071°35'0 0.0
2014-Aug-02 14:33N 41°11' W 071°35'0 0.0
2014-Aug-02 13:33N 41°11' W 071°35'0 0.0
2014-Aug-02 12:33N 41°11' W 071°35'0 0.0
2014-Aug-02 11:33N 41°11' W 071°35'0 0.0
2014-Aug-02 10:33N 41°11' W 071°35'  

Dump ship's entire track history